Time;durP1;ratioP1;P1;durP2;ratioP2;P2;SDS_P1;SDS_P2;PMS_P1;PMS_P2;Temp;Humidity;BMP_temperature;BMP_pressure;BME280_temperature;BME280_humidity;BME280_pressure;Samples;Min_cycle;Max_cycle;Signal;HPM_P1;HPM_P2
2022/01/18 00:00:53;;;;;;;13.95;3.60;;;;;;;-3.15;91.65;99914.22;2612460;28;20132;-78
2022/01/18 00:02:08;;;;;;;19.05;3.53;;;;;;;-3.18;91.79;99915.75;2612441;28;20049;-78
2022/01/18 00:03:24;;;;;;;12.82;3.70;;;;;;;-3.34;91.36;99917.53;2612206;28;20149;-78
2022/01/18 00:04:40;;;;;;;13.68;3.30;;;;;;;-3.45;90.96;99910.97;2612368;28;20052;-78
2022/01/18 00:05:55;;;;;;;10.95;3.60;;;;;;;-3.46;90.67;99910.09;2612345;28;20053;-78
2022/01/18 00:07:12;;;;;;;14.32;3.40;;;;;;;-3.49;90.98;99907.38;2611961;28;20049;-78
2022/01/18 00:08:27;;;;;;;9.40;3.47;;;;;;;-3.57;90.78;99900.97;2612224;28;20127;-78
2022/01/18 00:09:44;;;;;;;12.63;2.78;;;;;;;-3.78;89.98;99909.28;2612375;28;20045;-78
2022/01/18 00:11:00;;;;;;;14.85;3.00;;;;;;;-3.81;90.02;99914.25;2611379;28;20049;-79
2022/01/18 00:13:57;;;;;;;9.80;2.85;;;;;;;-3.70;91.54;99914.81;2611822;28;20060;-78
2022/01/18 00:16:49;;;;;;;14.07;3.30;;;;;;;-3.77;90.59;99923.84;2612144;28;20478;-78
2022/01/18 00:18:09;;;;;;;14.93;3.40;;;;;;;-3.83;90.28;99920.97;2611976;28;20071;-78
2022/01/18 00:19:25;;;;;;;12.23;3.50;;;;;;;-3.91;90.54;99925.66;2611930;28;20049;-78
2022/01/18 00:22:33;;;;;;;14.05;3.85;;;;;;;-3.95;90.45;99930.53;2580022;28;20090;-78
2022/01/18 00:23:53;;;;;;;15.18;4.15;;;;;;;-3.98;90.73;99933.78;2610288;28;20465;-78
2022/01/18 00:25:09;;;;;;;14.88;3.30;;;;;;;-4.02;90.74;99942.97;2612146;28;20075;-78
2022/01/18 00:26:29;;;;;;;14.38;3.50;;;;;;;-4.03;90.75;99945.47;2611917;28;20151;-79
2022/01/18 00:27:44;;;;;;;14.43;3.45;;;;;;;-4.02;90.99;99950.63;2611949;28;20550;-78
2022/01/18 00:29:07;;;;;;;14.75;4.75;;;;;;;-4.03;90.50;99945.47;2612118;28;20040;-78
2022/01/18 00:34:28;;;;;;;118.78;9.25;;;;;;;-4.05;92.15;99952.13;2612108;28;20048;-78
2022/01/18 00:35:46;;;;;;;152.88;9.52;;;;;;;-4.02;92.73;99949.78;2612075;28;20045;-78
2022/01/18 00:38:32;;;;;;;61.97;6.97;;;;;;;-4.21;92.26;99951.28;2612020;28;20091;-78
2022/01/18 00:39:47;;;;;;;46.20;6.85;;;;;;;-4.29;91.97;99952.56;2612111;28;20462;-78
2022/01/18 00:41:03;;;;;;;17.83;4.80;;;;;;;-4.37;91.85;99954.69;2611872;28;20045;-78
2022/01/18 00:42:19;;;;;;;17.13;5.25;;;;;;;-4.27;91.57;99958.63;2611757;28;20059;-78
2022/01/18 00:43:34;;;;;;;13.20;4.38;;;;;;;-4.21;91.88;99956.41;2611760;28;20491;-78
2022/01/18 00:44:50;;;;;;;14.07;4.18;;;;;;;-4.21;91.22;99960.66;2611790;28;20053;-80
2022/01/18 00:46:06;;;;;;;13.10;3.45;;;;;;;-4.24;91.23;99963.91;2611987;28;20499;-79
2022/01/18 00:47:22;;;;;;;10.43;3.38;;;;;;;-4.28;91.35;99972.22;2611863;28;20049;-78
2022/01/18 00:48:39;;;;;;;13.45;3.70;;;;;;;-4.28;91.15;99974.78;2611847;28;20114;-78
2022/01/18 00:50:01;;;;;;;11.82;3.67;;;;;;;-4.27;91.27;99971.44;2611902;28;20049;-78
2022/01/18 00:51:16;;;;;;;12.85;3.28;;;;;;;-4.27;91.22;99976.53;2612003;28;20090;-78
2022/01/18 00:52:36;;;;;;;10.18;2.67;;;;;;;-4.30;91.55;99982.34;2611873;28;20107;-78
2022/01/18 00:53:52;;;;;;;9.95;2.50;;;;;;;-4.36;91.33;99981.13;2611862;28;20492;-79
2022/01/18 00:55:08;;;;;;;8.77;2.70;;;;;;;-4.42;90.85;99982.53;2611946;28;20044;-78
2022/01/18 00:56:31;;;;;;;13.32;2.55;;;;;;;-4.41;90.81;99978.28;2611468;28;20084;-78
2022/01/18 00:57:46;;;;;;;7.00;2.60;;;;;;;-4.40;90.92;99991.19;2611923;28;20053;-78
2022/01/18 00:59:02;;;;;;;9.43;2.67;;;;;;;-4.39;90.70;99976.75;2611720;28;20048;-78
2022/01/18 01:00:18;;;;;;;13.23;3.03;;;;;;;-4.40;90.93;99980.06;2611942;28;20044;-78
2022/01/18 01:01:34;;;;;;;8.63;3.20;;;;;;;-4.43;90.52;99980.78;2611976;28;20052;-78
2022/01/18 01:02:50;;;;;;;8.20;2.65;;;;;;;-4.46;90.94;99975.50;2611814;28;20605;-78
2022/01/18 01:04:05;;;;;;;16.30;3.25;;;;;;;-4.50;90.36;99980.34;2611751;28;20084;-78
2022/01/18 01:05:21;;;;;;;14.85;3.08;;;;;;;-4.47;90.75;99980.53;2611889;28;20399;-78
2022/01/18 01:06:37;;;;;;;13.05;3.42;;;;;;;-4.45;90.81;99979.81;2611594;28;20045;-78
2022/01/18 01:07:53;;;;;;;12.23;3.45;;;;;;;-4.40;91.00;99983.50;2611731;28;20056;-78
2022/01/18 01:09:09;;;;;;;13.15;3.30;;;;;;;-4.42;91.09;99979.09;2611820;28;20045;-79
2022/01/18 01:10:24;;;;;;;8.85;3.08;;;;;;;-4.52;90.80;99981.94;2611595;28;20049;-78
2022/01/18 01:11:41;;;;;;;10.85;3.08;;;;;;;-4.56;90.00;99979.19;2611827;28;20052;-78
2022/01/18 01:12:56;;;;;;;12.68;2.95;;;;;;;-4.57;90.33;99985.09;2611734;28;20403;-78
2022/01/18 01:14:18;;;;;;;9.05;2.90;;;;;;;-4.57;90.34;99986.78;2611559;28;20049;-79
2022/01/18 01:15:44;;;;;;;13.23;2.88;;;;;;;-4.50;91.27;99981.22;2611426;28;20057;-79
2022/01/18 01:17:12;;;;;;;12.80;2.85;;;;;;;-4.52;90.70;99985.38;2611663;28;20045;-78
2022/01/18 01:35:04;;;;;;;9.07;2.65;;;;;;;-4.47;90.71;100006.09;2611464;28;20055;-78
2022/01/18 01:44:48;;;;;;;9.98;3.05;;;;;;;-4.62;90.03;100013.72;2579368;28;20073;-78
2022/01/18 01:46:04;;;;;;;11.38;2.92;;;;;;;-4.59;90.22;100011.38;2579371;28;20043;-78
2022/01/18 01:47:22;;;;;;;12.32;4.00;;;;;;;-4.54;90.51;100015.06;2579117;28;20437;-78
2022/01/18 01:48:40;;;;;;;17.05;3.85;;;;;;;-4.57;90.27;100015.75;2590470;28;20056;-79
2022/01/18 01:49:55;;;;;;;12.68;3.58;;;;;;;-4.54;89.79;100020.19;2611310;28;20488;-78
2022/01/18 01:51:11;;;;;;;12.82;3.17;;;;;;;-4.54;89.75;100025.28;2611214;28;20374;-78
2022/01/18 01:52:27;;;;;;;12.77;3.67;;;;;;;-4.59;89.77;100019.91;2611412;28;20589;-78
2022/01/18 01:53:42;;;;;;;15.30;4.45;;;;;;;-4.72;89.00;100014.88;2611157;28;20045;-78
2022/01/18 01:54:58;;;;;;;7.60;3.20;;;;;;;-4.78;88.76;100020.50;2611221;28;20403;-78
2022/01/18 01:56:13;;;;;;;8.80;2.90;;;;;;;-4.80;89.58;100027.19;2611145;28;20079;-78
2022/01/18 01:57:29;;;;;;;13.40;4.10;;;;;;;-4.69;90.43;100028.72;2611199;28;20052;-78
2022/01/18 01:58:45;;;;;;;12.98;3.90;;;;;;;-4.75;90.64;100024.91;2611169;28;20439;-78
2022/01/18 02:00:16;;;;;;;10.68;3.15;;;;;;;-4.75;90.46;100028.38;2611170;28;20052;-80
2022/01/18 02:01:45;;;;;;;8.90;3.38;;;;;;;-4.74;90.27;100034.34;2611170;28;20045;-79
2022/01/18 02:03:01;;;;;;;12.77;3.28;;;;;;;-4.64;91.36;100025.53;2611264;28;20072;-79
2022/01/18 02:04:16;;;;;;;11.77;3.30;;;;;;;-4.68;90.99;100033.03;2611096;28;20049;-79
2022/01/18 02:05:32;;;;;;;13.02;3.17;;;;;;;-4.69;90.78;100028.72;2611056;28;20045;-78
2022/01/18 02:06:47;;;;;;;11.60;3.60;;;;;;;-4.73;90.65;100031.00;2610847;28;20518;-79
2022/01/18 02:08:07;;;;;;;10.88;2.95;;;;;;;-4.73;90.12;100034.44;2610970;28;20108;-78
2022/01/18 02:09:22;;;;;;;14.88;3.88;;;;;;;-4.75;89.60;100033.47;2611210;28;20506;-78
2022/01/18 02:10:39;;;;;;;12.40;3.08;;;;;;;-4.85;90.15;100034.59;2611081;28;20049;-79
2022/01/18 02:11:56;;;;;;;9.85;3.38;;;;;;;-4.96;90.04;100039.06;2611088;28;20060;-79
2022/01/18 02:13:13;;;;;;;13.23;3.80;;;;;;;-4.94;90.03;100036.59;2611058;28;20061;-79
2022/01/18 02:14:30;;;;;;;14.02;3.58;;;;;;;-4.94;90.28;100040.81;2611028;28;20053;-79
2022/01/18 02:21:46;;;;;;;13.18;4.03;;;;;;;-5.05;89.38;100032.53;2610975;28;20091;-79
2022/01/18 02:22:55;;;;;;;11.27;3.67;;;;;;;-5.14;89.18;100038.81;2610770;28;20179;-79
2022/01/18 02:24:11;;;;;;;11.45;3.38;;;;;;;-5.20;89.21;100041.03;2610975;28;20091;-79
2022/01/18 02:25:26;;;;;;;14.68;3.40;;;;;;;-5.20;89.57;100037.56;2611031;28;20049;-79
2022/01/18 02:26:42;;;;;;;15.27;3.40;;;;;;;-5.31;89.14;100031.81;2610819;28;20044;-78
2022/01/18 02:27:58;;;;;;;16.40;3.85;;;;;;;-5.30;89.57;100031.03;2611067;28;20056;-78
2022/01/18 02:29:14;;;;;;;11.15;3.22;;;;;;;-5.26;89.86;100031.31;2610999;28;20069;-78
2022/01/18 02:30:30;;;;;;;16.33;3.50;;;;;;;-5.11;90.30;100028.78;2610947;28;20110;-78
2022/01/18 02:31:46;;;;;;;11.10;3.13;;;;;;;-5.12;90.25;100024.47;2610873;28;20554;-79
2022/01/18 02:33:01;;;;;;;11.85;2.97;;;;;;;-5.07;90.61;100034.97;2610962;28;20064;-78
2022/01/18 02:34:19;;;;;;;11.50;2.92;;;;;;;-5.05;90.27;100027.41;2610797;28;20076;-78
2022/01/18 02:35:36;;;;;;;11.05;3.35;;;;;;;-5.14;89.95;100023.50;2610847;28;20080;-78
2022/01/18 02:36:57;;;;;;;15.63;3.40;;;;;;;-5.15;89.65;100031.97;2610655;28;20495;-78
2022/01/18 02:38:13;;;;;;;12.85;3.15;;;;;;;-5.14;89.22;100025.19;2610047;28;20044;-78
2022/01/18 02:39:28;;;;;;;11.25;3.53;;;;;;;-5.14;89.42;100023.50;2610970;28;20411;-78
2022/01/18 02:40:44;;;;;;;10.32;3.55;;;;;;;-5.10;89.39;100024.56;2610737;28;20326;-78
2022/01/18 02:42:06;;;;;;;13.23;3.65;;;;;;;-5.15;89.54;100020.88;2610876;28;20511;-78
2022/01/18 02:44:55;;;;;;;13.32;4.20;;;;;;;-5.24;88.97;100021.16;2610884;28;20124;-78
2022/01/18 02:46:11;;;;;;;15.23;4.00;;;;;;;-5.24;89.27;100016.06;2610423;28;20618;-78
2022/01/18 02:47:27;;;;;;;12.60;3.72;;;;;;;-5.27;89.20;100015.88;2610686;28;20045;-78
2022/01/18 02:48:43;;;;;;;15.25;3.33;;;;;;;-5.22;88.97;100023.81;2610802;28;20045;-78
2022/01/18 02:49:58;;;;;;;11.55;3.28;;;;;;;-5.21;89.16;100023.94;2610744;28;20059;-78
2022/01/18 02:51:14;;;;;;;10.95;3.75;;;;;;;-5.14;89.56;100027.75;2610739;28;20049;-78
2022/01/18 02:52:29;;;;;;;12.27;4.35;;;;;;;-5.05;89.68;100032.53;2610866;28;20413;-77
2022/01/18 02:54:15;;;;;;;15.50;3.47;;;;;;;-5.12;89.95;100032.13;2610642;28;20063;-77
2022/01/18 02:55:30;;;;;;;11.30;3.30;;;;;;;-5.11;90.18;100033.03;2610063;28;20049;-77
2022/01/18 02:56:52;;;;;;;16.42;3.75;;;;;;;-5.15;89.80;100036.19;2610516;28;20499;-78
2022/01/18 02:58:10;;;;;;;9.52;3.45;;;;;;;-5.15;89.41;100042.16;2610772;28;20148;-79
2022/01/18 02:59:42;;;;;;;13.90;4.15;;;;;;;-5.13;89.61;100045.69;2610784;28;20136;-78
2022/01/18 03:03:59;;;;;;;11.15;3.28;;;;;;;-5.26;89.56;100044.06;2610534;28;20055;-78
2022/01/18 03:05:16;;;;;;;14.43;5.43;;;;;;;-5.27;89.78;100043.97;2610732;28;20479;-78
2022/01/18 03:06:31;;;;;;;11.55;3.50;;;;;;;-5.29;89.97;100049.00;2610509;28;20053;-78
2022/01/18 03:07:47;;;;;;;12.48;3.75;;;;;;;-5.29;89.86;100048.09;2610590;28;20048;-78
2022/01/18 03:09:03;;;;;;;8.32;3.47;;;;;;;-5.31;89.76;100040.38;2610630;28;20120;-79
2022/01/18 03:10:18;;;;;;;11.35;3.65;;;;;;;-5.33;90.03;100043.59;2610672;28;20053;-78
2022/01/18 03:11:34;;;;;;;14.10;3.80;;;;;;;-5.38;89.82;100048.41;2610721;28;20150;-78
2022/01/18 03:12:50;;;;;;;11.10;3.58;;;;;;;-5.39;89.91;100046.66;2610623;28;20057;-79
2022/01/18 03:14:06;;;;;;;13.00;3.97;;;;;;;-5.37;89.89;100039.09;2610759;28;20056;-78
2022/01/18 03:15:21;;;;;;;15.63;3.35;;;;;;;-5.39;89.65;100037.31;2610638;28;20053;-79
2022/01/18 03:16:38;;;;;;;17.05;4.53;;;;;;;-5.36;89.79;100036.63;2610413;28;20053;-79
2022/01/18 03:17:54;;;;;;;17.35;4.38;;;;;;;-5.30;90.09;100039.59;2610671;28;20544;-79
2022/01/18 03:19:10;;;;;;;12.25;4.13;;;;;;;-5.31;89.58;100039.47;2610799;28;20049;-79
2022/01/18 03:20:26;;;;;;;18.65;4.25;;;;;;;-5.31;89.40;100034.38;2610768;28;20041;-78
2022/01/18 03:21:41;;;;;;;12.77;3.90;;;;;;;-5.34;89.45;100029.94;2610666;28;20045;-79
2022/01/18 03:22:57;;;;;;;12.27;3.85;;;;;;;-5.32;89.35;100037.72;2610609;28;20060;-79
2022/01/18 03:25:53;;;;;;;12.70;4.18;;;;;;;-5.32;89.35;100032.59;2610588;28;20041;-79
2022/01/18 03:28:43;;;;;;;18.52;3.83;;;;;;;-5.46;88.83;100037.75;2610548;28;20053;-79
2022/01/18 03:29:59;;;;;;;11.68;4.00;;;;;;;-5.47;88.69;100027.41;2610465;28;20045;-78
2022/01/18 03:31:14;;;;;;;11.32;4.20;;;;;;;-5.49;88.93;100029.91;2610483;28;20491;-79
2022/01/18 03:32:30;;;;;;;12.70;4.68;;;;;;;-5.48;89.03;100030.75;2610640;28;20434;-79
2022/01/18 03:33:46;;;;;;;10.75;4.13;;;;;;;-5.44;89.70;100030.19;2610698;28;20080;-79
2022/01/18 03:35:02;;;;;;;16.13;3.90;;;;;;;-5.43;89.74;100031.94;2610537;28;20047;-79
2022/01/18 03:36:18;;;;;;;11.27;3.20;;;;;;;-5.47;89.61;100041.09;2610609;28;20236;-79
2022/01/18 03:37:33;;;;;;;13.20;3.45;;;;;;;-5.50;89.42;100051.09;2610531;28;20056;-79
2022/01/18 03:38:49;;;;;;;11.60;3.60;;;;;;;-5.55;88.68;100040.59;2610589;28;20059;-79
2022/01/18 03:40:06;;;;;;;11.27;3.33;;;;;;;-5.55;88.96;100047.38;2610676;28;20098;-79
2022/01/18 03:41:21;;;;;;;8.43;2.45;;;;;;;-5.59;89.41;100041.19;2610659;28;20076;-79
2022/01/18 03:42:41;;;;;;;19.13;3.83;;;;;;;-5.53;89.67;100049.25;2609989;28;20049;-79
2022/01/18 03:43:57;;;;;;;15.43;3.22;;;;;;;-5.53;90.20;100049.25;2610322;28;20056;-80
2022/01/18 03:45:18;;;;;;;11.15;3.22;;;;;;;-5.60;89.45;100041.97;2610555;28;20052;-79
2022/01/18 03:46:36;;;;;;;11.25;3.30;;;;;;;-5.62;89.98;100045.22;2610392;28;20380;-78
2022/01/18 03:47:54;;;;;;;9.10;2.75;;;;;;;-5.67;89.54;100055.16;2610592;28;20098;-79
2022/01/18 03:49:10;;;;;;;12.85;3.72;;;;;;;-5.66;89.85;100046.69;2611185;28;20424;-79
2022/01/18 03:50:26;;;;;;;13.77;3.80;;;;;;;-5.68;89.63;100046.59;2611997;28;20095;-79
2022/01/18 03:51:42;;;;;;;12.05;3.65;;;;;;;-5.67;89.71;100044.94;2612122;28;20049;-79
2022/01/18 03:52:57;;;;;;;9.70;4.10;;;;;;;-5.62;89.98;100053.75;2612276;28;20484;-78
2022/01/18 03:54:20;;;;;;;12.32;3.90;;;;;;;-5.55;89.56;100049.91;2612161;28;20127;-78
2022/01/18 03:55:35;;;;;;;14.90;4.15;;;;;;;-5.50;90.35;100047.66;2612206;28;20080;-78
2022/01/18 03:56:51;;;;;;;11.13;3.90;;;;;;;-5.47;89.91;100060.59;2612091;28;20044;-79
2022/01/18 03:58:06;;;;;;;13.45;4.22;;;;;;;-5.53;89.55;100051.78;2612320;28;20041;-78
2022/01/18 03:59:22;;;;;;;13.52;3.83;;;;;;;-5.56;89.28;100055.81;2612088;28;20052;-79
2022/01/18 04:00:37;;;;;;;14.30;4.20;;;;;;;-5.58;89.40;100060.84;2611729;28;20041;-79
2022/01/18 04:01:53;;;;;;;9.55;3.40;;;;;;;-5.63;89.40;100057.09;2611836;28;20064;-78
2022/01/18 04:03:08;;;;;;;8.30;3.33;;;;;;;-5.67;89.12;100057.69;2611919;28;20044;-78
2022/01/18 04:04:24;;;;;;;13.82;4.53;;;;;;;-5.70;89.39;100049.84;2612170;28;20392;-78
2022/01/18 04:05:40;;;;;;;15.45;3.95;;;;;;;-5.71;88.91;100056.59;2611985;28;20041;-78
2022/01/18 04:06:55;;;;;;;12.90;3.83;;;;;;;-5.73;89.04;100053.09;2612238;28;20103;-78
2022/01/18 04:08:11;;;;;;;17.60;4.72;;;;;;;-5.76;89.06;100057.09;2611710;28;20158;-78
2022/01/18 04:09:27;;;;;;;12.85;4.10;;;;;;;-5.79;88.65;100049.25;2612267;28;20081;-78
2022/01/18 04:10:42;;;;;;;14.23;3.97;;;;;;;-5.85;88.96;100045.53;2612059;28;20045;-78
2022/01/18 04:11:57;;;;;;;15.13;4.18;;;;;;;-5.89;89.41;100051.22;2611901;28;20071;-78
2022/01/18 04:13:13;;;;;;;11.30;3.67;;;;;;;-5.92;89.85;100043.38;2612183;28;20561;-78
2022/01/18 04:14:29;;;;;;;11.73;3.53;;;;;;;-5.95;89.23;100044.06;2612191;28;20423;-78
2022/01/18 04:15:45;;;;;;;14.48;3.78;;;;;;;-5.89;89.27;100045.25;2611958;28;20110;-78
2022/01/18 04:17:08;;;;;;;13.68;3.78;;;;;;;-5.85;89.11;100043.00;2611788;28;20041;-78
2022/01/18 04:27:13;;;;;;;12.27;3.55;;;;;;;-5.68;90.01;100054.25;2600947;28;20053;-79
2022/01/18 04:28:40;;;;;;;11.85;3.33;;;;;;;-5.59;89.82;100059.03;2601959;28;20053;-79
2022/01/18 04:29:55;;;;;;;15.20;3.67;;;;;;;-5.54;89.84;100056.78;2606820;28;20487;-78
2022/01/18 04:31:11;;;;;;;11.63;3.05;;;;;;;-5.51;90.30;100054.44;2611458;28;20103;-79
2022/01/18 04:32:27;;;;;;;13.35;3.75;;;;;;;-5.56;90.18;100059.25;2611847;28;20056;-79
2022/01/18 04:33:42;;;;;;;11.13;3.30;;;;;;;-5.65;89.74;100063.78;2611367;28;20056;-81
2022/01/18 04:34:58;;;;;;;10.88;3.15;;;;;;;-5.67;88.94;100068.75;2611275;28;20045;-79
2022/01/18 04:36:14;;;;;;;7.28;2.72;;;;;;;-5.69;88.87;100067.78;2611033;28;20454;-78
2022/01/18 04:37:30;;;;;;;8.38;2.85;;;;;;;-5.76;89.08;100077.50;2611928;28;20045;-78
2022/01/18 04:38:45;;;;;;;12.85;3.60;;;;;;;-5.75;89.80;100075.06;2612029;28;20381;-79
2022/01/18 04:40:10;;;;;;;13.13;3.13;;;;;;;-5.75;89.62;100077.63;2611866;28;20122;-79
2022/01/18 04:41:29;;;;;;;10.38;3.15;;;;;;;-5.77;89.92;100079.19;2611893;28;20126;-79
2022/01/18 04:48:33;;;;;;;12.02;3.25;;;;;;;-5.65;90.23;100089.28;2611789;28;20045;-79
2022/01/18 04:49:49;;;;;;;10.00;4.00;;;;;;;-5.69;90.36;100095.00;2621497;28;20479;-79
2022/01/18 04:51:08;;;;;;;20.60;3.75;;;;;;;-5.78;89.46;100089.28;2616413;28;20127;-78
2022/01/18 04:52:23;;;;;;;12.68;3.25;;;;;;;-5.83;89.25;100097.53;2611753;28;20856;-79
2022/01/18 04:53:42;;;;;;;12.50;3.63;;;;;;;-5.86;89.49;100092.25;2611704;28;20094;-78
2022/01/18 04:55:00;;;;;;;11.55;3.78;;;;;;;-5.88;89.17;100096.34;2611928;28;20538;-78
2022/01/18 04:56:19;;;;;;;16.73;3.88;;;;;;;-5.93;88.96;100097.72;2611645;28;20103;-79
2022/01/18 04:57:54;;;;;;;11.45;3.92;;;;;;;-5.93;89.33;100101.97;2608617;28;20045;-79
2022/01/18 04:59:10;;;;;;;9.48;3.63;;;;;;;-5.95;89.30;100112.03;2601179;28;20539;-79
2022/01/18 05:00:26;;;;;;;11.13;3.83;;;;;;;-5.98;89.15;100116.94;2610949;28;20042;-79
2022/01/18 05:01:44;;;;;;;9.63;3.35;;;;;;;-5.96;89.34;100115.38;2611329;28;20471;-79
2022/01/18 05:03:00;;;;;;;10.05;2.92;;;;;;;-5.99;88.75;100120.28;2611659;28;20056;-78
2022/01/18 05:04:16;;;;;;;15.88;3.67;;;;;;;-6.01;89.22;100117.63;2611739;28;20041;-78
2022/01/18 05:05:36;;;;;;;13.27;4.05;;;;;;;-5.98;89.14;100124.59;2611570;28;20087;-79
2022/01/18 05:06:57;;;;;;;14.15;3.80;;;;;;;-5.99;88.89;100120.28;2611756;28;20053;-78
2022/01/18 05:08:14;;;;;;;14.60;3.33;;;;;;;-5.99;88.71;100125.41;2611433;28;20049;-79
2022/01/18 05:09:29;;;;;;;13.73;3.35;;;;;;;-6.07;88.48;100126.56;2611528;28;20064;-78
2022/01/18 05:10:51;;;;;;;8.95;3.20;;;;;;;-6.02;88.97;100127.75;2611541;28;20126;-78
2022/01/18 05:12:15;;;;;;;12.63;3.42;;;;;;;-6.03;88.69;100131.09;2611585;28;20048;-78
2022/01/18 05:15:20;;;;;;;11.73;3.72;;;;;;;-6.02;88.76;100140.50;2611386;28;20080;-78
2022/01/18 05:23:57;;;;;;;11.50;3.97;;;;;;;-5.96;88.77;100139.19;2611158;28;20088;-79
2022/01/18 05:25:12;;;;;;;10.02;4.20;;;;;;;-5.90;89.16;100135.31;2611347;28;20857;-78
2022/01/18 05:26:29;;;;;;;12.20;4.60;;;;;;;-5.85;89.39;100142.47;2611390;28;20048;-78
2022/01/18 05:27:45;;;;;;;15.98;4.70;;;;;;;-5.74;89.46;100150.81;2611507;28;20075;-79
2022/01/18 05:29:00;;;;;;;12.82;4.03;;;;;;;-5.65;89.59;100150.53;2611551;28;20123;-80
2022/01/18 05:30:16;;;;;;;13.23;4.28;;;;;;;-5.51;90.38;100153.09;2611404;28;20049;-79
2022/01/18 05:31:31;;;;;;;14.20;4.30;;;;;;;-5.54;90.22;100152.09;2611436;28;20041;-79
2022/01/18 05:32:47;;;;;;;11.15;3.55;;;;;;;-5.53;89.62;100156.44;2611521;28;20099;-79
2022/01/18 05:34:02;;;;;;;13.93;3.63;;;;;;;-5.55;89.04;100154.56;2611505;28;20123;-78
2022/01/18 05:35:19;;;;;;;9.40;4.03;;;;;;;-5.56;89.34;100155.34;2611359;28;20579;-79
2022/01/18 05:36:35;;;;;;;11.25;4.10;;;;;;;-5.54;89.21;100154.66;2611343;28;20045;-79
2022/01/18 05:37:51;;;;;;;12.05;3.97;;;;;;;-5.50;89.25;100154.84;2611353;28;20045;-78
2022/01/18 05:39:10;;;;;;;12.23;3.80;;;;;;;-5.45;89.21;100153.47;2611062;28;20550;-79
2022/01/18 05:40:27;;;;;;;12.00;3.70;;;;;;;-5.41;89.06;100151.22;2611313;28;20107;-79
2022/01/18 05:41:44;;;;;;;17.08;4.53;;;;;;;-5.39;88.88;100149.63;2611355;28;20834;-79
2022/01/18 05:42:59;;;;;;;11.55;4.00;;;;;;;-5.37;88.89;100154.84;2611242;28;20049;-79
2022/01/18 05:44:15;;;;;;;16.52;4.07;;;;;;;-5.40;88.81;100157.22;2611346;28;20056;-79
2022/01/18 05:45:31;;;;;;;9.95;4.20;;;;;;;-5.40;89.12;100157.22;2611314;28;20056;-79
2022/01/18 05:46:46;;;;;;;13.40;4.25;;;;;;;-5.43;88.95;100157.03;2611266;28;20041;-79
2022/01/18 05:48:02;;;;;;;13.43;4.22;;;;;;;-5.45;89.01;100162.03;2611189;28;20210;-79
2022/01/18 05:49:17;;;;;;;13.27;4.22;;;;;;;-5.46;89.03;100159.34;2611312;28;20076;-79
2022/01/18 05:50:35;;;;;;;11.48;3.97;;;;;;;-5.44;88.72;100165.47;2611353;28;20056;-79
2022/01/18 05:51:50;;;;;;;13.50;4.32;;;;;;;-5.44;89.00;100163.78;2611235;28;20437;-79
2022/01/18 05:53:06;;;;;;;14.32;4.00;;;;;;;-5.40;89.14;100162.31;2611223;28;20068;-78
2022/01/18 05:54:21;;;;;;;19.02;4.57;;;;;;;-5.35;89.17;100166.03;2610774;28;20284;-78
2022/01/18 05:55:37;;;;;;;18.23;5.07;;;;;;;-5.32;88.95;100165.38;2611089;28;20041;-78
2022/01/18 05:56:53;;;;;;;13.88;4.57;;;;;;;-5.28;88.91;100168.22;2611152;28;20057;-78
2022/01/18 05:58:08;;;;;;;11.65;4.53;;;;;;;-5.20;89.63;100166.13;2611063;28;20106;-78
2022/01/18 05:59:33;;;;;;;15.43;5.43;;;;;;;-5.19;89.07;100165.34;2611143;28;20041;-78
2022/01/18 06:00:52;;;;;;;13.05;4.65;;;;;;;-5.16;89.29;100172.34;2611216;28;20844;-79
2022/01/18 06:02:30;;;;;;;14.05;4.68;;;;;;;-5.15;89.61;100166.44;2610852;28;20037;-79
2022/01/18 06:06:53;;;;;;;12.23;4.82;;;;;;;-5.26;89.08;100156.41;2606693;28;20072;-78
2022/01/18 06:08:08;;;;;;;12.70;4.70;;;;;;;-5.32;88.83;100160.25;2610542;28;20052;-78
2022/01/18 06:09:24;;;;;;;16.25;5.75;;;;;;;-5.36;88.74;100154.06;2610970;28;20048;-79
2022/01/18 06:10:40;;;;;;;17.05;6.38;;;;;;;-5.40;89.28;100163.19;2611089;28;20056;-78
2022/01/18 06:11:55;;;;;;;17.77;6.35;;;;;;;-5.40;89.26;100157.22;2610842;28;20045;-79
2022/01/18 06:13:13;;;;;;;17.27;6.57;;;;;;;-5.42;89.05;100162.22;2611094;28;20404;-78
2022/01/18 06:14:28;;;;;;;17.80;5.90;;;;;;;-5.41;89.62;100168.22;2610873;28;20049;-78
2022/01/18 06:15:44;;;;;;;14.85;4.93;;;;;;;-5.35;89.25;100165.16;2610838;28;20516;-79
2022/01/18 06:17:00;;;;;;;18.27;5.43;;;;;;;-5.32;89.88;100162.81;2610802;28;20110;-79
2022/01/18 06:18:17;;;;;;;15.93;4.80;;;;;;;-5.28;89.79;100168.22;2610932;28;20450;-78
2022/01/18 06:19:33;;;;;;;15.63;4.45;;;;;;;-5.22;90.49;100159.16;2610962;28;20045;-79
2022/01/18 06:20:48;;;;;;;20.30;4.70;;;;;;;-5.21;89.91;100166.94;2610905;28;20049;-79
2022/01/18 06:22:04;;;;;;;14.07;4.32;;;;;;;-5.17;90.13;100170.53;2610986;28;20456;-79
2022/01/18 06:23:21;;;;;;;14.80;4.47;;;;;;;-5.12;90.01;100179.38;2610942;28;20092;-79
2022/01/18 06:24:36;;;;;;;14.05;4.35;;;;;;;-5.04;90.52;100187.53;2611074;28;20041;-79
2022/01/18 06:25:53;;;;;;;18.70;5.30;;;;;;;-4.98;90.63;100188.81;2611002;28;20087;-79
2022/01/18 06:27:10;;;;;;;16.00;4.50;;;;;;;-4.91;90.32;100190.06;2610741;28;20060;-79
2022/01/18 06:28:25;;;;;;;13.35;4.65;;;;;;;-4.87;90.67;100186.03;2610835;28;20759;-78
2022/01/18 06:29:41;;;;;;;15.35;5.18;;;;;;;-4.83;90.56;100186.31;2610945;28;20049;-78
2022/01/18 06:30:56;;;;;;;15.50;5.05;;;;;;;-4.79;90.33;100192.50;2611040;28;20056;-78
2022/01/18 06:32:12;;;;;;;13.70;4.13;;;;;;;-4.74;90.12;100195.34;2610944;28;20118;-78
2022/01/18 06:33:27;;;;;;;14.63;4.35;;;;;;;-4.66;90.46;100198.38;2611046;28;20076;-78
2022/01/18 06:34:43;;;;;;;16.45;6.30;;;;;;;-4.70;89.23;100202.41;2610771;28;20476;-78
2022/01/18 06:35:58;;;;;;;17.63;6.18;;;;;;;-4.70;89.43;100198.19;2610764;28;20526;-78
2022/01/18 06:37:14;;;;;;;22.35;7.88;;;;;;;-4.69;89.38;100202.50;2610682;28;20525;-78
2022/01/18 06:38:30;;;;;;;13.52;6.47;;;;;;;-4.69;88.77;100199.94;2610861;28;20106;-78
2022/01/18 06:39:45;;;;;;;22.48;7.55;;;;;;;-4.66;88.91;100199.25;2610883;28;20049;-78
2022/01/18 06:41:01;;;;;;;22.25;8.18;;;;;;;-4.57;88.22;100201.50;2610701;28;20052;-83
2022/01/18 06:42:17;;;;;;;22.02;8.13;;;;;;;-4.58;88.39;100200.59;2610761;28;20541;-83
2022/01/18 06:43:33;;;;;;;23.20;7.90;;;;;;;-4.55;88.88;100203.34;2610722;28;20051;-81
2022/01/18 06:44:48;;;;;;;22.30;8.18;;;;;;;-4.58;88.89;100204.84;2610485;28;20078;-78
2022/01/18 06:46:03;;;;;;;20.42;7.30;;;;;;;-4.55;89.19;100211.00;2610008;28;20041;-78
2022/01/18 06:47:20;;;;;;;24.33;7.03;;;;;;;-4.57;88.78;100209.16;2609996;28;20049;-78
2022/01/18 06:48:35;;;;;;;21.25;7.50;;;;;;;-4.60;89.05;100208.97;2609605;28;20049;-77
2022/01/18 06:49:51;;;;;;;18.60;6.85;;;;;;;-4.58;88.86;100212.50;2610238;28;20049;-77
2022/01/18 06:51:06;;;;;;;16.60;6.45;;;;;;;-4.58;89.50;100215.94;2610592;28;20068;-77
2022/01/18 06:52:22;;;;;;;22.45;6.28;;;;;;;-4.58;90.21;100220.19;2610159;28;20138;-77
2022/01/18 06:53:44;;;;;;;22.42;7.47;;;;;;;-4.51;90.34;100211.22;2610172;28;20048;-77
2022/01/18 06:55:01;;;;;;;22.08;8.07;;;;;;;-4.54;90.51;100209.34;2610502;28;20127;-77
2022/01/18 06:56:20;;;;;;;27.65;8.45;;;;;;;-4.40;90.72;100221.28;2610741;28;20045;-77
2022/01/18 06:57:36;;;;;;;25.60;7.60;;;;;;;-4.41;90.90;100218.63;2610669;28;20045;-77
2022/01/18 06:58:53;;;;;;;29.95;8.30;;;;;;;-4.38;90.94;100228.16;2610721;28;20406;-77
2022/01/18 07:00:09;;;;;;;18.40;7.50;;;;;;;-4.34;90.57;100220.78;2610715;28;20048;-77
2022/01/18 07:01:24;;;;;;;23.67;7.78;;;;;;;-4.29;90.91;100224.50;2610642;28;20053;-77
2022/01/18 07:02:40;;;;;;;35.08;10.95;;;;;;;-4.31;90.64;100225.22;2610693;28;20049;-77
2022/01/18 07:03:56;;;;;;;27.95;10.85;;;;;;;-4.30;90.49;100226.97;2610699;28;20052;-77
2022/01/18 07:05:11;;;;;;;26.83;9.35;;;;;;;-4.32;90.41;100229.44;2610801;28;20067;-77
2022/01/18 07:06:27;;;;;;;27.73;7.75;;;;;;;-4.28;90.46;100227.94;2610855;28;20045;-77
2022/01/18 07:07:47;;;;;;;27.63;7.90;;;;;;;-4.24;90.64;100237.56;2610750;28;20411;-77
2022/01/18 07:09:02;;;;;;;22.20;7.60;;;;;;;-4.18;90.84;100245.63;2610763;28;20052;-77
2022/01/18 07:10:18;;;;;;;11.10;5.22;;;;;;;-4.14;90.87;100237.34;2610804;28;20133;-77
2022/01/18 07:11:34;;;;;;;22.02;7.05;;;;;;;-4.04;90.59;100235.34;2610721;28;20041;-77